Time;durP1;ratioP1;P1;durP2;ratioP2;P2;SDS_P1;SDS_P2;PMS_P1;PMS_P2;Temp;Humidity;BMP_temperature;BMP_pressure;BME280_temperature;BME280_humidity;BME280_pressure;Samples;Min_cycle;Max_cycle;Signal;HPM_P1;HPM_P2
2022/03/20 00:00:54;;;;;;;48.00;30.50;;;;;;;-0.95;49.30;101408.49;105326;1268;74362;-75
2022/03/20 00:03:22;;;;;;;53.90;33.50;;;;;;;-0.98;49.38;101409.50;105332;1268;70352;-75
2022/03/20 00:05:50;;;;;;;49.90;30.30;;;;;;;-1.02;49.40;101412.89;105316;1268;73210;-75
2022/03/20 00:08:17;;;;;;;49.10;29.40;;;;;;;-1.09;49.59;101414.86;105469;1268;60502;-75
2022/03/20 00:10:47;;;;;;;56.40;31.50;;;;;;;-1.16;49.60;101413.14;105321;1268;60764;-76
2022/03/20 00:13:19;;;;;;;47.90;29.50;;;;;;;-1.22;49.69;101412.84;105682;1268;74498;-77
2022/03/20 00:15:51;;;;;;;55.10;31.70;;;;;;;-1.26;49.89;101411.35;105299;1268;69537;-75
2022/03/20 00:18:20;;;;;;;50.00;31.00;;;;;;;-1.29;49.90;101413.95;105322;1268;74613;-74
2022/03/20 00:20:49;;;;;;;49.10;30.10;;;;;;;-1.29;50.12;101411.85;105549;1268;60503;-77
2022/03/20 00:23:17;;;;;;;50.20;31.40;;;;;;;-1.28;50.15;101413.27;105382;1268;62046;-75
2022/03/20 00:25:45;;;;;;;54.60;32.60;;;;;;;-1.27;50.28;101408.73;105495;1268;73741;-75
2022/03/20 00:28:14;;;;;;;53.30;31.00;;;;;;;-1.25;50.27;101409.65;104276;1268;1003899;-75
2022/03/20 00:30:42;;;;;;;56.30;31.80;;;;;;;-1.26;50.16;101411.02;105296;1268;72839;-76
2022/03/20 00:33:10;;;;;;;51.20;31.00;;;;;;;-1.31;50.23;101412.32;105350;1267;60503;-75
2022/03/20 00:35:37;;;;;;;49.00;29.90;;;;;;;-1.39;50.37;101412.16;105506;1268;62002;-76
2022/03/20 00:38:05;;;;;;;48.50;30.20;;;;;;;-1.46;50.44;101410.45;105138;1268;75913;-75
2022/03/20 00:40:32;;;;;;;55.50;31.10;;;;;;;-1.49;50.67;101411.44;105338;1268;69436;-76
2022/03/20 00:42:59;;;;;;;54.80;31.20;;;;;;;-1.48;50.73;101416.16;105341;1268;73380;-75
2022/03/20 00:45:28;;;;;;;53.10;31.30;;;;;;;-1.50;50.80;101414.89;105306;1268;60462;-75
2022/03/20 00:47:55;;;;;;;53.90;30.60;;;;;;;-1.53;50.94;101414.66;105367;1268;60840;-75
2022/03/20 00:50:23;;;;;;;50.20;29.30;;;;;;;-1.54;50.98;101417.59;104587;1268;1003145;-74
2022/03/20 00:52:49;;;;;;;54.10;30.40;;;;;;;-1.57;51.01;101415.80;105321;1267;70497;-75
2022/03/20 00:55:56;;;;;;;51.60;30.20;;;;;;;-1.56;51.19;101416.16;105044;1268;368882;-75
2022/03/20 00:59:00;;;;;;;51.00;29.20;;;;;;;-1.53;51.18;101413.95;104952;1274;60522;-76
2022/03/20 01:01:34;;;;;;;50.90;29.30;;;;;;;-1.49;51.11;101409.67;104688;1274;61762;-78
2022/03/20 01:04:10;;;;;;;52.30;28.80;;;;;;;-1.48;51.18;101409.88;104698;1274;74480;-75
2022/03/20 01:06:36;;;;;;;48.20;28.30;;;;;;;-1.50;51.28;101411.59;105029;1273;69783;-75
2022/03/20 01:09:03;;;;;;;49.10;30.00;;;;;;;-1.54;51.22;101408.18;104685;1274;60421;-75
2022/03/20 01:11:30;;;;;;;46.10;27.30;;;;;;;-1.56;51.34;101414.96;104991;1274;60458;-76
2022/03/20 01:13:56;;;;;;;46.40;30.10;;;;;;;-1.57;51.45;101410.39;104999;1274;60631;-76
2022/03/20 01:16:23;;;;;;;47.20;29.40;;;;;;;-1.57;51.48;101408.83;104707;1274;60519;-76
2022/03/20 01:18:50;;;;;;;50.20;28.80;;;;;;;-1.54;51.57;101403.13;105002;1274;60456;-75
2022/03/20 01:21:16;;;;;;;51.00;28.30;;;;;;;-1.56;51.57;101402.90;104802;1273;73185;-76
2022/03/20 01:23:43;;;;;;;48.70;29.10;;;;;;;-1.60;51.62;101404.73;105028;1274;60581;-75
2022/03/20 01:26:11;;;;;;;49.50;28.40;;;;;;;-1.63;51.66;101408.88;104918;1274;60828;-76
2022/03/20 01:28:38;;;;;;;46.80;29.50;;;;;;;-1.64;51.74;101409.19;105014;1272;75726;-75
2022/03/20 01:31:04;;;;;;;48.40;29.60;;;;;;;-1.66;51.90;101406.55;105313;1268;69295;-75
2022/03/20 01:33:31;;;;;;;54.40;31.50;;;;;;;-1.67;51.84;101405.81;105019;1268;71460;-75
2022/03/20 01:36:00;;;;;;;50.60;30.10;;;;;;;-1.66;51.95;101399.73;105333;1268;60488;-75
2022/03/20 01:38:27;;;;;;;46.60;29.80;;;;;;;-1.64;52.05;101403.79;104602;1268;1002619;-76
2022/03/20 01:40:54;;;;;;;52.30;30.60;;;;;;;-1.63;52.01;101403.48;105333;1268;75324;-74
2022/03/20 01:43:20;;;;;;;54.70;30.40;;;;;;;-1.64;51.96;101403.60;105371;1268;70326;-75
2022/03/20 01:45:47;;;;;;;53.00;31.30;;;;;;;-1.65;52.01;101402.90;105367;1268;73759;-75
2022/03/20 01:48:13;;;;;;;54.40;29.20;;;;;;;-1.65;52.07;101402.38;105353;1268;60465;-76
2022/03/20 01:50:42;;;;;;;53.30;31.00;;;;;;;-1.66;52.33;101399.74;105345;1268;60484;-75
2022/03/20 01:53:08;;;;;;;55.80;32.90;;;;;;;-1.65;52.17;101401.34;105323;1268;75383;-75
2022/03/20 01:55:35;;;;;;;52.80;31.10;;;;;;;-1.67;52.15;101399.18;105485;1267;60455;-76
2022/03/20 01:58:02;;;;;;;58.10;32.10;;;;;;;-1.71;52.29;101404.16;105444;1268;74384;-76
2022/03/20 02:00:29;;;;;;;54.20;32.00;;;;;;;-1.74;52.44;101401.65;104646;1268;1015771;-75
2022/03/20 02:02:55;;;;;;;53.90;31.50;;;;;;;-1.74;52.53;101399.04;105451;1268;60465;-74
2022/03/20 02:05:22;;;;;;;56.00;32.20;;;;;;;-1.72;52.58;101397.16;105329;1268;60526;-75
2022/03/20 02:07:49;;;;;;;53.70;32.00;;;;;;;-1.71;52.80;101390.56;105278;1268;67414;-75
2022/03/20 02:10:16;;;;;;;58.20;31.90;;;;;;;-1.67;52.89;101387.35;105052;1268;73201;-75
2022/03/20 02:12:43;;;;;;;53.90;32.40;;;;;;;-1.63;52.94;101384.66;105307;1268;60561;-75
2022/03/20 02:15:13;;;;;;;54.00;31.50;;;;;;;-1.60;52.72;101382.60;105277;1268;61848;-75
2022/03/20 02:17:44;;;;;;;54.80;33.60;;;;;;;-1.63;52.91;101379.43;105310;1268;74521;-76
2022/03/20 02:20:11;;;;;;;60.50;34.60;;;;;;;-1.65;52.87;101373.09;105314;1268;69616;-74
2022/03/20 02:22:43;;;;;;;57.70;33.70;;;;;;;-1.64;52.86;101371.19;105758;1268;73446;-74
2022/03/20 02:25:14;;;;;;;50.90;30.40;;;;;;;-1.63;52.99;101370.34;105260;1269;60463;-74
2022/03/20 02:27:40;;;;;;;51.80;31.30;;;;;;;-1.61;53.18;101368.65;105576;1268;61807;-75
2022/03/20 02:30:14;;;;;;;55.70;32.50;;;;;;;-1.59;53.04;101367.11;105290;1268;73558;-75
2022/03/20 02:32:43;;;;;;;53.00;32.70;;;;;;;-1.60;52.85;101363.95;105392;1268;70403;-75
2022/03/20 02:35:14;;;;;;;57.20;32.10;;;;;;;-1.62;52.83;101365.48;105464;1268;73290;-76
2022/03/20 02:37:45;;;;;;;59.60;35.30;;;;;;;-1.64;53.03;101364.59;105405;1268;60586;-76
2022/03/20 02:40:13;;;;;;;59.30;32.20;;;;;;;-1.66;52.91;101365.76;105326;1267;60546;-75
2022/03/20 02:42:41;;;;;;;56.80;33.60;;;;;;;-1.72;52.75;101364.75;105502;1268;74835;-77
2022/03/20 02:45:13;;;;;;;66.40;41.10;;;;;;;-1.79;52.99;101369.50;105324;1268;69210;-77
2022/03/20 02:47:42;;;;;;;63.50;44.60;;;;;;;-1.83;53.07;101369.22;105352;1268;73214;-76
2022/03/20 02:50:18;;;;;;;61.50;37.00;;;;;;;-1.90;53.23;101369.42;105405;1268;60585;-75
2022/03/20 02:52:53;;;;;;;58.50;34.20;;;;;;;-1.98;53.31;101368.55;105331;1268;62010;-75
2022/03/20 02:55:26;;;;;;;52.30;31.30;;;;;;;-2.05;53.50;101366.66;105322;1268;74637;-75
2022/03/20 02:57:55;;;;;;;54.10;32.90;;;;;;;-2.11;53.79;101364.95;105878;1268;67852;-75
2022/03/20 03:00:30;;;;;;;54.70;33.50;;;;;;;-2.12;53.84;101361.10;105343;1268;74838;-75
2022/03/20 03:02:58;;;;;;;51.60;32.40;;;;;;;-2.11;54.26;101367.37;104529;1268;1015928;-75
2022/03/20 03:05:29;;;;;;;59.30;31.90;;;;;;;-2.10;54.16;101368.30;105394;1267;60842;-74
2022/03/20 03:10:56;;;;;;;55.60;32.20;;;;;;;-2.14;54.12;101372.17;105128;1268;68364;-74
2022/03/20 03:13:27;;;;;;;59.40;33.90;;;;;;;-2.21;54.40;101374.64;105274;1268;73331;-76
2022/03/20 03:15:56;;;;;;;53.70;31.30;;;;;;;-2.25;54.39;101378.39;105383;1268;60460;-76
2022/03/20 03:18:23;;;;;;;53.40;32.00;;;;;;;-2.27;54.74;101373.98;105409;1268;61007;-75
2022/03/20 03:20:50;;;;;;;50.60;31.60;;;;;;;-2.26;54.69;101381.32;105429;1268;75399;-74
2022/03/20 03:23:18;;;;;;;50.80;30.50;;;;;;;-2.28;54.77;101380.92;105448;1268;69549;-75
2022/03/20 03:25:45;;;;;;;54.10;32.10;;;;;;;-2.29;54.77;101383.16;105675;1268;73348;-75
2022/03/20 03:28:12;;;;;;;49.70;31.10;;;;;;;-2.32;54.85;101388.83;105495;1268;60402;-74
2022/03/20 03:30:43;;;;;;;60.70;33.20;;;;;;;-2.35;54.97;101389.27;104860;1268;1003417;-75
2022/03/20 03:33:11;;;;;;;49.20;30.80;;;;;;;-2.37;55.03;101390.64;105772;1268;75539;-76
2022/03/20 03:35:42;;;;;;;59.00;31.60;;;;;;;-2.39;55.24;101389.89;105728;1268;70218;-76
2022/03/20 03:38:19;;;;;;;;;;;;;;;-2.39;55.25;101392.83;105674;1268;73137;-74
2022/03/20 03:40:48;;;;;;;53.00;32.40;;;;;;;-2.41;55.39;101386.69;106306;1268;60403;-75
2022/03/20 03:43:17;;;;;;;54.70;31.90;;;;;;;-2.45;55.58;101389.05;107302;1268;60753;-74
2022/03/20 03:45:46;;;;;;;48.90;31.70;;;;;;;-2.48;55.58;101389.84;106150;1268;1003258;-75
2022/03/20 03:48:14;;;;;;;52.40;31.30;;;;;;;-2.49;56.06;101389.48;107369;1268;66321;-75
2022/03/20 03:50:43;;;;;;;53.50;31.00;;;;;;;-2.49;55.80;101389.98;107375;1268;72886;-75
2022/03/20 03:53:11;;;;;;;51.20;31.50;;;;;;;-2.52;55.76;101390.44;105424;1268;60758;-74
2022/03/20 03:55:39;;;;;;;56.70;32.00;;;;;;;-2.52;55.76;101391.30;104676;1268;1005081;-75
2022/03/20 03:58:05;;;;;;;51.20;31.70;;;;;;;-2.55;55.78;101394.54;105476;1268;75804;-75
2022/03/20 04:00:33;;;;;;;57.60;33.00;;;;;;;-2.58;55.95;101396.21;105467;1268;70137;-75
2022/03/20 04:03:00;;;;;;;50.50;30.80;;;;;;;-2.60;55.98;101392.83;105432;1268;73569;-75
2022/03/20 04:05:28;;;;;;;53.80;31.20;;;;;;;-2.64;56.15;101393.45;105352;1268;60522;-75
2022/03/20 04:07:55;;;;;;;50.30;30.70;;;;;;;-2.67;56.23;101394.23;105667;1268;60978;-74
2022/03/20 04:10:23;;;;;;;53.70;30.70;;;;;;;-2.70;56.37;101397.13;105126;1268;75325;-74
2022/03/20 04:12:50;;;;;;;49.70;28.90;;;;;;;-2.72;56.50;101395.35;105324;1268;70395;-75
2022/03/20 04:15:22;;;;;;;52.70;32.20;;;;;;;-2.72;56.53;101393.75;105374;1268;74051;-76
2022/03/20 04:17:49;;;;;;;49.40;29.20;;;;;;;-2.74;56.61;101396.31;105321;1267;60496;-74
2022/03/20 04:20:15;;;;;;;51.20;31.00;;;;;;;-2.77;56.66;101389.80;105338;1268;60701;-76
2022/03/20 04:23:43;;;;;;;57.00;32.10;;;;;;;-2.79;56.58;101392.70;105296;1268;60458;-76
2022/03/20 04:25:33;;;;;;;51.30;31.70;;;;;;;-2.82;56.82;101392.80;105330;1268;68132;-75
2022/03/20 04:28:00;;;;;;;48.30;31.00;;;;;;;-2.83;57.00;101394.35;105479;1268;73250;-73
2022/03/20 04:30:28;;;;;;;52.00;31.20;;;;;;;-2.83;57.00;101398.52;104594;1268;1003907;-77
2022/03/20 04:32:58;;;;;;;54.30;31.30;;;;;;;-2.83;56.98;101403.92;105683;1268;60863;-75
2022/03/20 04:35:24;;;;;;;57.70;33.00;;;;;;;-2.85;57.01;101402.98;105445;1268;74630;-75
2022/03/20 04:37:52;;;;;;;46.40;30.20;;;;;;;-2.88;57.07;101405.52;105289;1268;60427;-75
2022/03/20 04:40:19;;;;;;;55.70;31.70;;;;;;;-2.90;57.11;101407.93;105316;1268;73454;-74
2022/03/20 04:42:46;;;;;;;53.50;32.40;;;;;;;-2.90;57.58;101410.35;105311;1268;60567;-75
2022/03/20 04:45:13;;;;;;;57.50;34.70;;;;;;;-2.90;57.51;101411.56;105365;1268;60902;-75
2022/03/20 04:58:43;;;;;;;60.50;32.80;;;;;;;-2.88;57.62;101436.84;105307;1268;62096;-75
2022/03/20 05:01:10;;;;;;;48.10;31.50;;;;;;;-2.90;57.70;101441.85;105325;1268;74432;-75
2022/03/20 05:03:36;;;;;;;54.70;34.00;;;;;;;-2.91;57.72;101443.54;104585;1268;1003484;-73
2022/03/20 05:06:05;;;;;;;52.10;33.20;;;;;;;-2.88;57.82;101443.44;105314;1268;60561;-75
2022/03/20 05:08:33;;;;;;;58.70;32.80;;;;;;;-2.73;57.68;101443.50;104793;1268;1003091;-76
2022/03/20 05:13:58;;;;;;;59.50;33.70;;;;;;;-2.31;57.47;101437.77;105085;1268;76086;-75
2022/03/20 05:16:24;;;;;;;62.30;35.30;;;;;;;-2.14;56.98;101437.85;105340;1268;60605;-74
2022/03/20 05:18:51;;;;;;;54.30;34.60;;;;;;;-1.96;56.72;101437.08;105278;1268;60260;-75
2022/03/20 05:21:17;;;;;;;55.90;34.00;;;;;;;-1.79;56.52;101433.45;105303;1268;60472;-76
2022/03/20 05:23:44;;;;;;;58.30;36.40;;;;;;;-1.63;56.31;101436.23;105357;1268;62303;-75
2022/03/20 05:26:10;;;;;;;55.60;35.60;;;;;;;-1.45;56.23;101429.48;105357;1268;60383;-76
2022/03/20 05:28:37;;;;;;;55.90;35.50;;;;;;;-1.28;55.93;101434.70;105335;1268;60437;-75
2022/03/20 05:31:03;;;;;;;61.00;36.10;;;;;;;-1.13;55.61;101436.06;105325;1268;60370;-76
2022/03/20 05:33:32;;;;;;;57.00;34.90;;;;;;;-0.98;55.48;101443.34;105318;1268;60701;-76
2022/03/20 05:35:59;;;;;;;60.20;35.90;;;;;;;-0.83;55.12;101445.36;105332;1268;60959;-74
2022/03/20 05:38:26;;;;;;;60.30;35.70;;;;;;;-0.70;54.77;101449.27;105328;1268;74197;-75
2022/03/20 05:41:43;;;;;;;54.60;34.80;;;;;;;-0.59;54.44;101450.52;105311;1268;69442;-75
2022/03/20 05:43:39;;;;;;;53.50;35.20;;;;;;;-0.52;54.03;101454.15;105298;1268;74846;-75
2022/03/20 05:46:06;;;;;;;57.80;36.40;;;;;;;-0.47;53.93;101454.22;105296;1268;60481;-75
2022/03/20 05:48:35;;;;;;;58.50;36.30;;;;;;;-0.45;53.82;101453.56;105271;1268;61691;-75
2022/03/20 05:51:02;;;;;;;59.40;35.10;;;;;;;-0.37;53.61;101455.10;105331;1268;74504;-73
2022/03/20 05:53:29;;;;;;;55.80;35.20;;;;;;;-0.32;53.47;101458.17;105290;1268;60574;-75
2022/03/20 05:58:41;;;;;;;48.60;31.30;;;;;;;-0.39;53.60;101460.81;105323;1268;60651;-76
2022/03/20 06:01:08;;;;;;;52.40;35.50;;;;;;;-0.54;53.70;101460.56;104597;1268;1002927;-76
2022/03/20 06:03:35;;;;;;;50.00;33.30;;;;;;;-0.64;53.83;101459.85;105332;1268;60462;-75
2022/03/20 06:06:01;;;;;;;56.10;35.30;;;;;;;-0.72;54.01;101466.69;105305;1268;69160;-76
2022/03/20 06:08:28;;;;;;;59.80;36.90;;;;;;;-0.77;54.04;101468.88;105333;1268;60373;-75
2022/03/20 06:10:56;;;;;;;54.50;35.70;;;;;;;-0.76;54.13;101462.61;105149;1268;60554;-74
2022/03/20 06:13:22;;;;;;;56.40;35.50;;;;;;;-0.75;54.18;101468.73;105334;1268;61181;-75
2022/03/20 06:15:49;;;;;;;54.10;36.10;;;;;;;-0.74;54.19;101468.55;105302;1268;60684;-75
2022/03/20 06:18:15;;;;;;;52.30;33.40;;;;;;;-0.73;54.12;101475.77;105310;1268;60466;-75
2022/03/20 06:20:41;;;;;;;53.30;34.90;;;;;;;-0.71;54.11;101474.20;105331;1268;60519;-74
2022/03/20 06:23:08;;;;;;;54.20;34.10;;;;;;;-0.68;53.91;101475.14;104579;1268;1003394;-75
2022/03/20 06:25:35;;;;;;;53.30;35.10;;;;;;;-0.65;53.67;101477.46;105352;1268;60472;-73
2022/03/20 06:28:02;;;;;;;54.50;35.00;;;;;;;-0.62;53.75;101481.02;105321;1268;74351;-75
2022/03/20 06:30:33;;;;;;;55.40;35.70;;;;;;;-0.55;53.68;101483.95;105323;1268;70360;-74
2022/03/20 06:33:02;;;;;;;52.30;33.20;;;;;;;-0.49;53.76;101485.80;104582;1268;1003131;-76
2022/03/20 06:35:28;;;;;;;56.00;35.30;;;;;;;-0.42;53.56;101486.27;105454;1268;60465;-76
2022/03/20 06:37:55;;;;;;;58.30;36.20;;;;;;;-0.38;53.55;101486.35;105324;1268;60433;-75
2022/03/20 06:40:22;;;;;;;51.30;34.60;;;;;;;-0.30;53.61;101491.90;105294;1268;60386;-75
2022/03/20 06:42:49;;;;;;;61.40;37.00;;;;;;;-0.22;53.55;101498.51;105481;1268;70127;-76
2022/03/20 06:45:18;;;;;;;51.90;34.50;;;;;;;-0.13;53.39;101494.99;105301;1268;73050;-76
2022/03/20 06:47:45;;;;;;;52.40;34.30;;;;;;;-0.05;53.25;101500.53;105296;1268;60536;-75
2022/03/20 06:50:12;;;;;;;53.50;36.00;;;;;;;0.02;53.16;101502.91;105323;1268;60727;-76
2022/03/20 06:52:40;;;;;;;58.60;36.50;;;;;;;0.09;52.91;101501.63;105137;1268;75845;-75
2022/03/20 06:55:12;;;;;;;55.30;34.20;;;;;;;0.14;52.95;101506.98;105305;1268;69116;-75
2022/03/20 06:57:43;;;;;;;51.90;35.70;;;;;;;0.25;52.91;101511.85;105455;1268;73370;-75
2022/03/20 07:00:12;;;;;;;52.90;34.90;;;;;;;0.36;52.56;101516.58;105403;1268;60532;-76
2022/03/20 07:02:39;;;;;;;53.80;33.40;;;;;;;0.45;52.46;101517.77;105509;1268;61136;-76
2022/03/20 07:05:06;;;;;;;51.90;34.90;;;;;;;0.52;52.29;101519.61;105333;1268;60388;-76
2022/03/20 07:07:34;;;;;;;53.20;37.00;;;;;;;0.57;51.98;101519.49;104998;1271;70501;-73
2022/03/20 07:10:01;;;;;;;57.20;34.50;;;;;;;0.61;51.95;101520.09;105304;1268;73139;-75
2022/03/20 07:12:28;;;;;;;52.20;34.80;;;;;;;0.71;52.07;101524.77;105290;1268;60435;-76
2022/03/20 07:14:55;;;;;;;53.00;37.30;;;;;;;0.84;51.98;101525.31;105379;1268;60586;-75
2022/03/20 07:17:24;;;;;;;50.60;36.80;;;;;;;0.92;51.51;101528.39;105298;1268;75531;-76
2022/03/20 07:19:51;;;;;;;49.70;33.50;;;;;;;0.98;51.52;101526.73;105340;1268;70392;-75
2022/03/20 07:22:19;;;;;;;50.70;35.00;;;;;;;1.10;51.67;101527.22;105299;1268;73173;-75
2022/03/20 07:24:46;;;;;;;51.10;35.70;;;;;;;1.24;51.23;101526.70;104607;1268;1003500;-77
2022/03/20 07:29:57;;;;;;;56.00;36.90;;;;;;;1.33;50.79;101532.74;105339;1268;75248;-74
2022/03/20 07:32:24;;;;;;;49.20;34.80;;;;;;;1.41;50.91;101530.21;105325;1268;68301;-76
2022/03/20 07:34:52;;;;;;;52.50;35.80;;;;;;;1.51;50.64;101532.61;105339;1268;73243;-75
2022/03/20 07:37:21;;;;;;;53.30;35.40;;;;;;;1.59;50.52;101536.36;105458;1268;60441;-76
2022/03/20 07:39:51;;;;;;;56.00;35.80;;;;;;;1.70;50.62;101532.46;105408;1268;61923;-76
2022/03/20 07:42:19;;;;;;;60.30;38.30;;;;;;;1.84;50.39;101533.64;105325;1268;75491;-76
2022/03/20 07:44:47;;;;;;;53.50;36.60;;;;;;;1.94;50.26;101530.59;105062;1268;68138;-75
2022/03/20 07:47:21;;;;;;;52.10;34.90;;;;;;;2.05;50.10;101534.17;105298;1268;74574;-76
2022/03/20 07:49:49;;;;;;;50.80;34.20;;;;;;;2.17;49.68;101538.67;105335;1268;60465;-75
2022/03/20 07:52:16;;;;;;;50.00;34.30;;;;;;;2.18;49.03;101539.20;105472;1268;62077;-75
2022/03/20 07:54:45;;;;;;;52.80;35.00;;;;;;;2.21;49.16;101537.48;105330;1268;75681;-74
2022/03/20 07:57:13;;;;;;;50.10;35.00;;;;;;;2.26;48.99;101545.25;105075;1268;70379;-73
2022/03/20 07:59:42;;;;;;;52.50;34.00;;;;;;;2.32;48.93;101545.99;105102;1268;71496;-72
2022/03/20 08:02:08;;;;;;;51.50;34.50;;;;;;;2.40;49.01;101549.73;105306;1268;60414;-74
2022/03/20 08:04:35;;;;;;;52.50;36.50;;;;;;;2.55;49.24;101551.77;105329;1268;60831;-73
2022/03/20 08:07:03;;;;;;;44.90;31.80;;;;;;;2.74;49.23;101550.30;105335;1268;74457;-73
2022/03/20 08:09:30;;;;;;;43.90;32.40;;;;;;;2.91;48.81;101551.30;105384;1268;68964;-74
2022/03/20 08:11:56;;;;;;;44.00;31.00;;;;;;;3.00;48.32;101556.79;105110;1268;74420;-73
2022/03/20 08:14:23;;;;;;;47.00;31.10;;;;;;;3.08;48.14;101557.19;105107;1268;60888;-73
2022/03/20 08:16:51;;;;;;;43.20;29.60;;;;;;;3.16;47.66;101555.11;105346;1268;60612;-72
2022/03/20 08:19:19;;;;;;;44.10;30.00;;;;;;;3.25;47.60;101553.05;105181;1269;72767;-75
2022/03/20 08:21:49;;;;;;;42.60;30.70;;;;;;;3.31;47.11;101551.84;104636;1268;1003059;-73
2022/03/20 08:24:18;;;;;;;44.00;31.10;;;;;;;3.39;47.08;101556.10;105341;1268;73055;-72
2022/03/20 08:26:45;;;;;;;40.40;31.40;;;;;;;3.48;47.00;101554.71;105232;1268;60501;-73
2022/03/20 08:29:14;;;;;;;43.90;31.00;;;;;;;3.60;46.73;101555.98;105387;1268;60584;-75
2022/03/20 08:31:45;;;;;;;43.90;31.30;;;;;;;3.69;46.72;101553.90;105465;1268;75234;-73
2022/03/20 08:34:16;;;;;;;42.60;30.20;;;;;;;3.80;46.53;101555.67;105365;1268;69149;-74
2022/03/20 08:36:47;;;;;;;43.80;31.10;;;;;;;3.92;46.22;101554.98;105583;1268;72852;-75
2022/03/20 08:39:14;;;;;;;48.70;33.60;;;;;;;4.01;46.00;101549.20;105372;1268;60459;-73
2022/03/20 08:41:43;;;;;;;38.40;29.90;;;;;;;4.08;45.77;101545.86;105356;1268;61156;-75
2022/03/20 08:44:10;;;;;;;41.40;30.40;;;;;;;4.19;45.64;101542.36;105362;1268;74501;-74
2022/03/20 08:46:38;;;;;;;40.50;28.80;;;;;;;4.31;45.46;101539.00;105332;1268;69352;-75
2022/03/20 08:49:07;;;;;;;37.50;28.20;;;;;;;4.42;44.68;101536.54;105591;1268;74012;-72
2022/03/20 08:51:35;;;;;;;39.30;28.30;;;;;;;4.49;44.66;101530.71;105349;1268;60413;-73
2022/03/20 08:54:02;;;;;;;36.00;26.10;;;;;;;4.56;43.97;101530.52;105328;1268;60568;-72
2022/03/20 08:56:30;;;;;;;37.80;28.00;;;;;;;4.63;44.18;101531.58;105070;1268;72513;-74
2022/03/20 08:58:57;;;;;;;37.90;27.10;;;;;;;4.72;43.84;101528.92;105488;1268;69307;-74
2022/03/20 09:01:24;;;;;;;31.90;25.10;;;;;;;4.82;43.86;101526.96;105322;1268;73706;-75
2022/03/20 09:03:52;;;;;;;34.90;26.20;;;;;;;4.97;43.67;101527.98;105341;1268;60468;-75
2022/03/20 09:06:22;;;;;;;32.70;25.90;;;;;;;5.05;43.17;101523.36;105426;1268;61373;-76
2022/03/20 09:08:50;;;;;;;31.40;24.30;;;;;;;5.15;42.53;101519.63;105026;1270;75208;-72
2022/03/20 09:11:18;;;;;;;31.70;23.60;;;;;;;5.22;42.46;101521.35;105366;1268;70178;-72
2022/03/20 09:13:46;;;;;;;33.80;25.30;;;;;;;5.32;42.37;101518.31;105065;1268;71646;-72
2022/03/20 09:19:27;;;;;;;35.10;23.80;;;;;;;5.64;41.49;101516.73;105350;1268;60442;-73
2022/03/20 09:21:55;;;;;;;29.50;21.30;;;;;;;5.77;41.21;101513.98;104451;1278;72857;-72
2022/03/20 09:24:22;;;;;;;29.10;23.10;;;;;;;5.88;40.64;101507.93;104932;1277;70483;-73
2022/03/20 09:26:49;;;;;;;32.80;24.80;;;;;;;5.97;40.82;101509.11;104915;1277;73687;-73
2022/03/20 09:29:17;;;;;;;37.90;27.00;;;;;;;6.07;41.28;101508.17;104607;1278;60603;-72
2022/03/20 09:31:45;;;;;;;33.90;23.60;;;;;;;6.21;40.98;101506.64;104463;1278;60500;-73
2022/03/20 09:34:13;;;;;;;28.70;21.90;;;;;;;6.29;40.52;101500.56;104640;1277;76041;-72
2022/03/20 09:36:40;;;;;;;27.30;22.40;;;;;;;6.35;40.07;101500.52;105082;1274;70278;-72
2022/03/20 09:39:08;;;;;;;30.30;23.00;;;;;;;6.42;40.26;101500.63;104616;1275;74377;-72
2022/03/20 09:41:38;;;;;;;30.00;20.80;;;;;;;6.51;40.11;101499.30;104919;1277;60581;-73
2022/03/20 09:44:06;;;;;;;31.40;22.20;;;;;;;6.61;39.42;101500.61;104989;1275;60655;-74
2022/03/20 09:46:34;;;;;;;29.10;22.00;;;;;;;6.64;38.97;101506.06;104931;1274;75740;-73
2022/03/20 09:49:05;;;;;;;32.40;24.10;;;;;;;6.67;38.96;101501.78;104971;1275;68817;-73
2022/03/20 09:51:34;;;;;;;30.40;23.10;;;;;;;6.70;38.61;101499.10;105018;1275;74379;-74
2022/03/20 09:54:01;;;;;;;34.30;25.90;;;;;;;6.78;39.14;101502.20;104941;1277;60651;-73
2022/03/20 09:56:28;;;;;;;34.80;24.00;;;;;;;6.95;39.07;101497.77;104941;1275;60719;-73
2022/03/20 09:58:55;;;;;;;32.50;23.70;;;;;;;7.09;39.01;101501.12;104691;1275;75772;-73
2022/03/20 10:01:22;;;;;;;35.80;26.90;;;;;;;7.26;38.88;101496.84;104949;1274;70215;-74
2022/03/20 10:04:15;;;;;;;34.60;26.20;;;;;;;7.41;38.91;101493.09;104948;1275;72655;-73
2022/03/20 10:06:43;;;;;;;33.70;25.50;;;;;;;7.59;38.75;101489.84;104971;1274;60582;-72
2022/03/20 10:09:16;;;;;;;35.30;27.30;;;;;;;7.74;38.96;101485.73;105184;1275;61112;-74
2022/03/20 10:11:53;;;;;;;31.40;24.90;;;;;;;7.91;38.56;101486.19;104999;1275;75022;-74
2022/03/20 10:14:23;;;;;;;27.20;21.70;;;;;;;8.01;37.70;101483.52;105209;1268;67565;-73
2022/03/20 10:17:14;;;;;;;27.20;22.50;;;;;;;7.93;36.89;101484.38;105475;1268;73845;-73
2022/03/20 10:19:41;;;;;;;28.90;21.50;;;;;;;7.89;36.98;101483.73;105343;1268;60475;-74
2022/03/20 10:22:14;;;;;;;24.40;20.40;;;;;;;7.94;36.54;101484.88;105402;1269;60373;-72
2022/03/20 10:24:49;;;;;;;28.80;22.00;;;;;;;7.94;36.46;101485.59;105693;1268;75624;-73
2022/03/20 10:27:16;;;;;;;28.60;22.10;;;;;;;8.03;36.86;101479.08;105612;1268;67943;-73
2022/03/20 10:30:02;;;;;;;25.90;20.80;;;;;;;8.17;36.54;101483.25;105270;1268;72901;-74
2022/03/20 10:32:29;;;;;;;22.00;18.30;;;;;;;8.29;36.18;101480.23;105366;1268;60474;-74
2022/03/20 10:35:19;;;;;;;25.10;18.40;;;;;;;8.32;35.82;101475.38;105497;1268;60480;-73
2022/03/20 10:37:51;;;;;;;21.30;16.90;;;;;;;8.45;35.87;101471.84;104921;1274;73060;-74
2022/03/20 10:40:22;;;;;;;25.20;17.00;;;;;;;8.60;36.02;101470.12;105095;1274;70061;-73
2022/03/20 10:43:15;;;;;;;22.50;16.50;;;;;;;8.75;35.56;101470.00;105093;1274;71478;-72
2022/03/20 10:46:02;;;;;;;20.80;16.10;;;;;;;8.86;35.44;101468.20;105441;1273;60516;-73
2022/03/20 10:48:42;;;;;;;15.20;13.10;;;;;;;8.97;35.14;101469.04;104809;1274;62053;-73
2022/03/20 10:51:09;;;;;;;18.70;13.20;;;;;;;8.94;33.72;101463.95;105031;1274;75659;-74
2022/03/20 10:53:53;;;;;;;19.60;14.40;;;;;;;8.90;33.93;101463.68;105031;1274;69031;-73
2022/03/20 10:56:20;;;;;;;18.20;14.80;;;;;;;8.95;33.84;101458.80;105071;1274;73618;-74
2022/03/20 10:58:48;;;;;;;14.60;11.20;;;;;;;8.99;33.12;101457.46;104915;1274;60573;-74
2022/03/20 11:01:17;;;;;;;14.80;11.20;;;;;;;8.99;32.28;101456.39;105030;1274;60888;-73
2022/03/20 11:03:46;;;;;;;14.40;11.40;;;;;;;8.98;32.02;101455.19;105203;1273;74416;-74
2022/03/20 11:06:13;;;;;;;17.30;13.80;;;;;;;8.95;32.16;101445.67;104974;1275;68700;-74
2022/03/20 11:08:40;;;;;;;14.70;12.30;;;;;;;8.95;31.95;101441.95;105135;1272;74152;-73
2022/03/20 11:11:10;;;;;;;13.90;11.60;;;;;;;9.04;32.52;101442.29;105301;1270;60452;-73
2022/03/20 11:13:45;;;;;;;15.00;11.60;;;;;;;9.21;32.00;101436.42;105247;1271;61292;-74
2022/03/20 11:16:15;;;;;;;14.90;11.50;;;;;;;9.29;31.49;101436.25;105744;1268;74348;-74
2022/03/20 11:18:45;;;;;;;13.80;12.20;;;;;;;9.31;31.42;101430.34;105064;1269;68010;-73
2022/03/20 11:21:12;;;;;;;17.30;14.00;;;;;;;9.35;31.42;101422.81;105431;1268;73202;-73
2022/03/20 11:23:40;;;;;;;14.40;12.20;;;;;;;9.44;31.62;101419.57;105327;1268;60466;-73
2022/03/20 11:26:10;;;;;;;12.90;11.10;;;;;;;9.54;31.27;101417.77;105105;1268;60653;-74
2022/03/20 11:29:09;;;;;;;18.40;14.30;;;;;;;9.60;31.05;101412.64;105377;1268;75565;-73
2022/03/20 11:31:37;;;;;;;15.50;13.20;;;;;;;9.64;31.01;101405.80;105091;1274;67677;-74
2022/03/20 11:34:07;;;;;;;15.90;13.10;;;;;;;9.65;30.82;101399.38;105083;1274;74668;-74
2022/03/20 11:37:06;;;;;;;17.90;13.10;;;;;;;9.68;30.66;101396.48;105171;1273;60479;-73
2022/03/20 11:39:38;;;;;;;14.00;12.60;;;;;;;9.71;30.49;101393.90;105014;1273;61229;-73